sensor_id;sensor_type;location;lat;lon;timestamp;P1;durP1;ratioP1;P2;durP2;ratioP2
8881;SDS011;4477;48.736;9.176;2022-10-31T00:00:14;16.20;;;8.83;;
8881;SDS011;4477;48.736;9.176;2022-10-31T00:02:41;10.63;;;7.97;;
8881;SDS011;4477;48.736;9.176;2022-10-31T00:05:08;11.77;;;8.50;;
8881;SDS011;4477;48.736;9.176;2022-10-31T00:07:35;12.30;;;8.80;;
8881;SDS011;4477;48.736;9.176;2022-10-31T00:10:02;11.33;;;8.80;;
8881;SDS011;4477;48.736;9.176;2022-10-31T00:12:29;13.83;;;9.07;;
8881;SDS011;4477;48.736;9.176;2022-10-31T00:14:57;14.80;;;10.20;;
8881;SDS011;4477;48.736;9.176;2022-10-31T00:17:24;14.30;;;9.90;;
8881;SDS011;4477;48.736;9.176;2022-10-31T00:19:50;16.03;;;10.87;;
8881;SDS011;4477;48.736;9.176;2022-10-31T00:22:17;14.83;;;10.57;;
8881;SDS011;4477;48.736;9.176;2022-10-31T00:24:44;13.10;;;9.97;;
8881;SDS011;4477;48.736;9.176;2022-10-31T00:27:11;14.47;;;11.17;;
8881;SDS011;4477;48.736;9.176;2022-10-31T00:29:38;18.87;;;11.70;;
8881;SDS011;4477;48.736;9.176;2022-10-31T00:32:06;18.27;;;10.73;;
8881;SDS011;4477;48.736;9.176;2022-10-31T00:34:32;14.37;;;10.53;;
8881;SDS011;4477;48.736;9.176;2022-10-31T00:36:59;16.20;;;11.93;;
8881;SDS011;4477;48.736;9.176;2022-10-31T00:39:26;17.13;;;12.90;;
8881;SDS011;4477;48.736;9.176;2022-10-31T00:41:53;20.37;;;14.00;;
8881;SDS011;4477;48.736;9.176;2022-10-31T00:44:20;18.13;;;13.23;;
8881;SDS011;4477;48.736;9.176;2022-10-31T00:46:46;20.40;;;13.30;;
8881;SDS011;4477;48.736;9.176;2022-10-31T00:49:14;18.83;;;13.63;;
8881;SDS011;4477;48.736;9.176;2022-10-31T00:51:42;20.07;;;13.30;;
8881;SDS011;4477;48.736;9.176;2022-10-31T00:54:08;19.80;;;14.67;;
8881;SDS011;4477;48.736;9.176;2022-10-31T00:56:35;17.50;;;13.33;;
8881;SDS011;4477;48.736;9.176;2022-10-31T00:59:02;19.27;;;11.93;;
8881;SDS011;4477;48.736;9.176;2022-10-31T01:01:29;18.10;;;13.00;;
8881;SDS011;4477;48.736;9.176;2022-10-31T01:03:56;16.47;;;13.03;;
8881;SDS011;4477;48.736;9.176;2022-10-31T01:06:24;22.03;;;14.07;;
8881;SDS011;4477;48.736;9.176;2022-10-31T01:08:51;23.20;;;15.33;;
8881;SDS011;4477;48.736;9.176;2022-10-31T01:11:19;19.80;;;13.17;;
8881;SDS011;4477;48.736;9.176;2022-10-31T01:13:47;22.43;;;13.67;;
8881;SDS011;4477;48.736;9.176;2022-10-31T01:16:16;24.23;;;15.63;;
8881;SDS011;4477;48.736;9.176;2022-10-31T01:18:45;23.90;;;16.90;;
8881;SDS011;4477;48.736;9.176;2022-10-31T01:21:14;23.13;;;16.20;;
8881;SDS011;4477;48.736;9.176;2022-10-31T01:23:44;27.87;;;18.87;;
8881;SDS011;4477;48.736;9.176;2022-10-31T01:26:12;22.60;;;15.07;;
8881;SDS011;4477;48.736;9.176;2022-10-31T01:28:43;28.93;;;17.70;;
8881;SDS011;4477;48.736;9.176;2022-10-31T01:31:11;26.23;;;17.53;;
8881;SDS011;4477;48.736;9.176;2022-10-31T01:33:38;21.50;;;14.53;;
8881;SDS011;4477;48.736;9.176;2022-10-31T01:36:16;25.67;;;17.43;;
8881;SDS011;4477;48.736;9.176;2022-10-31T01:38:46;25.60;;;18.10;;
8881;SDS011;4477;48.736;9.176;2022-10-31T01:41:14;22.23;;;15.33;;
8881;SDS011;4477;48.736;9.176;2022-10-31T01:43:43;30.70;;;18.57;;
8881;SDS011;4477;48.736;9.176;2022-10-31T01:46:12;26.43;;;17.57;;
8881;SDS011;4477;48.736;9.176;2022-10-31T01:48:39;26.33;;;17.40;;
8881;SDS011;4477;48.736;9.176;2022-10-31T01:51:07;22.50;;;15.87;;
8881;SDS011;4477;48.736;9.176;2022-10-31T01:53:36;26.10;;;18.40;;
8881;SDS011;4477;48.736;9.176;2022-10-31T01:56:05;27.07;;;17.20;;
8881;SDS011;4477;48.736;9.176;2022-10-31T01:58:33;24.33;;;17.73;;
8881;SDS011;4477;48.736;9.176;2022-10-31T02:01:00;26.47;;;19.83;;
8881;SDS011;4477;48.736;9.176;2022-10-31T02:03:28;27.73;;;19.73;;
8881;SDS011;4477;48.736;9.176;2022-10-31T02:05:56;30.57;;;21.83;;
8881;SDS011;4477;48.736;9.176;2022-10-31T02:08:25;26.80;;;19.70;;
8881;SDS011;4477;48.736;9.176;2022-10-31T02:10:54;34.67;;;21.97;;
8881;SDS011;4477;48.736;9.176;2022-10-31T02:13:24;29.33;;;20.07;;
8881;SDS011;4477;48.736;9.176;2022-10-31T02:15:52;27.60;;;18.70;;
8881;SDS011;4477;48.736;9.176;2022-10-31T02:18:20;27.73;;;19.90;;
8881;SDS011;4477;48.736;9.176;2022-10-31T02:20:49;30.33;;;20.27;;
8881;SDS011;4477;48.736;9.176;2022-10-31T02:23:38;32.13;;;21.43;;
8881;SDS011;4477;48.736;9.176;2022-10-31T02:26:42;32.37;;;22.10;;
8881;SDS011;4477;48.736;9.176;2022-10-31T02:32:20;29.03;;;20.07;;
8881;SDS011;4477;48.736;9.176;2022-10-31T02:34:52;31.83;;;21.13;;
8881;SDS011;4477;48.736;9.176;2022-10-31T02:37:25;38.53;;;22.90;;
8881;SDS011;4477;48.736;9.176;2022-10-31T02:40:02;26.97;;;19.53;;
8881;SDS011;4477;48.736;9.176;2022-10-31T02:42:33;31.40;;;22.63;;
8881;SDS011;4477;48.736;9.176;2022-10-31T02:45:07;27.77;;;20.27;;
8881;SDS011;4477;48.736;9.176;2022-10-31T02:47:39;26.83;;;20.77;;
8881;SDS011;4477;48.736;9.176;2022-10-31T02:50:10;29.90;;;21.20;;
8881;SDS011;4477;48.736;9.176;2022-10-31T02:52:39;30.37;;;20.97;;
8881;SDS011;4477;48.736;9.176;2022-10-31T02:55:10;24.77;;;18.43;;
8881;SDS011;4477;48.736;9.176;2022-10-31T02:57:39;26.80;;;18.77;;
8881;SDS011;4477;48.736;9.176;2022-10-31T03:00:08;27.00;;;19.77;;
8881;SDS011;4477;48.736;9.176;2022-10-31T03:02:55;28.07;;;19.93;;
8881;SDS011;4477;48.736;9.176;2022-10-31T03:05:35;28.63;;;19.97;;
8881;SDS011;4477;48.736;9.176;2022-10-31T03:08:13;27.70;;;16.90;;
8881;SDS011;4477;48.736;9.176;2022-10-31T03:10:45;32.60;;;18.93;;
8881;SDS011;4477;48.736;9.176;2022-10-31T03:13:20;25.43;;;16.33;;
8881;SDS011;4477;48.736;9.176;2022-10-31T03:15:53;32.50;;;21.60;;
8881;SDS011;4477;48.736;9.176;2022-10-31T03:18:27;27.40;;;17.00;;
8881;SDS011;4477;48.736;9.176;2022-10-31T03:20:58;24.97;;;18.27;;
8881;SDS011;4477;48.736;9.176;2022-10-31T03:23:27;29.47;;;20.13;;
8881;SDS011;4477;48.736;9.176;2022-10-31T03:25:56;23.07;;;18.00;;
8881;SDS011;4477;48.736;9.176;2022-10-31T03:28:28;29.37;;;19.40;;
8881;SDS011;4477;48.736;9.176;2022-10-31T03:30:57;30.50;;;20.73;;
8881;SDS011;4477;48.736;9.176;2022-10-31T03:33:28;32.40;;;20.87;;
8881;SDS011;4477;48.736;9.176;2022-10-31T03:35:59;23.80;;;17.97;;
8881;SDS011;4477;48.736;9.176;2022-10-31T03:38:31;27.90;;;20.53;;
8881;SDS011;4477;48.736;9.176;2022-10-31T03:40:59;30.77;;;21.10;;
8881;SDS011;4477;48.736;9.176;2022-10-31T03:43:30;26.03;;;18.27;;
8881;SDS011;4477;48.736;9.176;2022-10-31T03:46:03;25.97;;;17.97;;
8881;SDS011;4477;48.736;9.176;2022-10-31T03:48:32;30.40;;;21.23;;
8881;SDS011;4477;48.736;9.176;2022-10-31T03:51:02;38.77;;;22.30;;
8881;SDS011;4477;48.736;9.176;2022-10-31T03:53:36;29.00;;;21.40;;
8881;SDS011;4477;48.736;9.176;2022-10-31T03:56:08;31.13;;;20.87;;
8881;SDS011;4477;48.736;9.176;2022-10-31T03:58:39;23.77;;;16.47;;
8881;SDS011;4477;48.736;9.176;2022-10-31T04:01:13;22.33;;;16.80;;
8881;SDS011;4477;48.736;9.176;2022-10-31T04:03:45;32.70;;;19.70;;
8881;SDS011;4477;48.736;9.176;2022-10-31T04:06:12;34.27;;;22.10;;
8881;SDS011;4477;48.736;9.176;2022-10-31T04:08:49;30.70;;;20.17;;
8881;SDS011;4477;48.736;9.176;2022-10-31T04:11:21;25.73;;;17.97;;
8881;SDS011;4477;48.736;9.176;2022-10-31T04:13:51;26.87;;;19.30;;
8881;SDS011;4477;48.736;9.176;2022-10-31T04:16:19;27.67;;;20.00;;
8881;SDS011;4477;48.736;9.176;2022-10-31T04:18:49;31.97;;;20.37;;
8881;SDS011;4477;48.736;9.176;2022-10-31T04:21:16;22.07;;;16.37;;
8881;SDS011;4477;48.736;9.176;2022-10-31T04:23:43;28.97;;;19.80;;
8881;SDS011;4477;48.736;9.176;2022-10-31T04:26:10;28.70;;;21.27;;
8881;SDS011;4477;48.736;9.176;2022-10-31T04:31:13;26.93;;;18.47;;
8881;SDS011;4477;48.736;9.176;2022-10-31T04:33:41;31.43;;;18.67;;
8881;SDS011;4477;48.736;9.176;2022-10-31T04:36:09;27.80;;;19.70;;
8881;SDS011;4477;48.736;9.176;2022-10-31T04:38:36;30.67;;;19.93;;
8881;SDS011;4477;48.736;9.176;2022-10-31T04:41:02;23.40;;;17.27;;
8881;SDS011;4477;48.736;9.176;2022-10-31T04:43:29;27.77;;;18.47;;
8881;SDS011;4477;48.736;9.176;2022-10-31T04:45:56;23.50;;;17.27;;
8881;SDS011;4477;48.736;9.176;2022-10-31T04:48:23;25.77;;;18.50;;
8881;SDS011;4477;48.736;9.176;2022-10-31T04:50:50;28.53;;;20.23;;
8881;SDS011;4477;48.736;9.176;2022-10-31T04:53:18;26.07;;;17.80;;
8881;SDS011;4477;48.736;9.176;2022-10-31T04:55:45;31.33;;;21.90;;
8881;SDS011;4477;48.736;9.176;2022-10-31T04:58:12;30.70;;;20.90;;
8881;SDS011;4477;48.736;9.176;2022-10-31T05:00:39;34.60;;;21.73;;
8881;SDS011;4477;48.736;9.176;2022-10-31T05:03:05;28.93;;;20.20;;
8881;SDS011;4477;48.736;9.176;2022-10-31T05:05:32;29.87;;;19.53;;
8881;SDS011;4477;48.736;9.176;2022-10-31T05:07:59;29.07;;;19.67;;
8881;SDS011;4477;48.736;9.176;2022-10-31T05:10:28;27.70;;;20.23;;
8881;SDS011;4477;48.736;9.176;2022-10-31T05:12:56;23.17;;;15.80;;
8881;SDS011;4477;48.736;9.176;2022-10-31T05:15:25;25.50;;;19.10;;
8881;SDS011;4477;48.736;9.176;2022-10-31T05:17:53;26.27;;;19.07;;
8881;SDS011;4477;48.736;9.176;2022-10-31T05:20:22;35.33;;;22.70;;
8881;SDS011;4477;48.736;9.176;2022-10-31T05:22:52;31.70;;;22.67;;
8881;SDS011;4477;48.736;9.176;2022-10-31T05:25:20;32.67;;;22.63;;
8881;SDS011;4477;48.736;9.176;2022-10-31T05:27:51;36.77;;;21.87;;
8881;SDS011;4477;48.736;9.176;2022-10-31T05:30:19;29.00;;;20.13;;
8881;SDS011;4477;48.736;9.176;2022-10-31T05:32:48;34.13;;;24.53;;
8881;SDS011;4477;48.736;9.176;2022-10-31T05:35:16;30.00;;;21.77;;
8881;SDS011;4477;48.736;9.176;2022-10-31T05:37:44;28.77;;;19.83;;
8881;SDS011;4477;48.736;9.176;2022-10-31T05:40:11;26.70;;;19.53;;
8881;SDS011;4477;48.736;9.176;2022-10-31T05:42:39;30.63;;;22.30;;
8881;SDS011;4477;48.736;9.176;2022-10-31T05:45:09;38.60;;;24.57;;
8881;SDS011;4477;48.736;9.176;2022-10-31T05:47:37;32.63;;;23.60;;
8881;SDS011;4477;48.736;9.176;2022-10-31T05:50:04;23.93;;;17.93;;
8881;SDS011;4477;48.736;9.176;2022-10-31T05:52:32;27.13;;;19.90;;
8881;SDS011;4477;48.736;9.176;2022-10-31T05:54:59;32.50;;;23.73;;
8881;SDS011;4477;48.736;9.176;2022-10-31T05:57:26;36.43;;;23.90;;
8881;SDS011;4477;48.736;9.176;2022-10-31T05:59:54;36.20;;;25.43;;
8881;SDS011;4477;48.736;9.176;2022-10-31T06:02:22;42.00;;;30.77;;
8881;SDS011;4477;48.736;9.176;2022-10-31T06:04:48;30.37;;;23.83;;
8881;SDS011;4477;48.736;9.176;2022-10-31T06:07:15;34.67;;;27.10;;
8881;SDS011;4477;48.736;9.176;2022-10-31T06:09:42;42.93;;;28.63;;
8881;SDS011;4477;48.736;9.176;2022-10-31T06:12:09;36.73;;;27.23;;
8881;SDS011;4477;48.736;9.176;2022-10-31T06:14:36;33.20;;;25.67;;
8881;SDS011;4477;48.736;9.176;2022-10-31T06:17:02;35.83;;;26.53;;
8881;SDS011;4477;48.736;9.176;2022-10-31T06:19:31;37.17;;;27.90;;
8881;SDS011;4477;48.736;9.176;2022-10-31T06:21:57;34.27;;;27.07;;
8881;SDS011;4477;48.736;9.176;2022-10-31T06:24:24;35.03;;;24.43;;
8881;SDS011;4477;48.736;9.176;2022-10-31T06:26:51;36.50;;;26.50;;
8881;SDS011;4477;48.736;9.176;2022-10-31T06:29:18;28.77;;;22.53;;
8881;SDS011;4477;48.736;9.176;2022-10-31T06:31:45;36.10;;;25.93;;
8881;SDS011;4477;48.736;9.176;2022-10-31T06:34:12;34.07;;;25.93;;
8881;SDS011;4477;48.736;9.176;2022-10-31T06:36:40;33.47;;;27.43;;
8881;SDS011;4477;48.736;9.176;2022-10-31T06:39:07;38.33;;;28.43;;
8881;SDS011;4477;48.736;9.176;2022-10-31T06:41:33;36.37;;;25.47;;
8881;SDS011;4477;48.736;9.176;2022-10-31T06:44:01;35.90;;;25.10;;
8881;SDS011;4477;48.736;9.176;2022-10-31T06:46:28;29.67;;;23.50;;
8881;SDS011;4477;48.736;9.176;2022-10-31T06:48:55;28.87;;;22.20;;
8881;SDS011;4477;48.736;9.176;2022-10-31T06:51:22;38.10;;;27.03;;
8881;SDS011;4477;48.736;9.176;2022-10-31T06:53:50;36.23;;;24.90;;
8881;SDS011;4477;48.736;9.176;2022-10-31T06:56:17;32.57;;;22.80;;
8881;SDS011;4477;48.736;9.176;2022-10-31T06:58:44;35.93;;;25.13;;
8881;SDS011;4477;48.736;9.176;2022-10-31T07:01:11;41.13;;;27.93;;
8881;SDS011;4477;48.736;9.176;2022-10-31T07:03:38;39.33;;;27.50;;
8881;SDS011;4477;48.736;9.176;2022-10-31T07:06:04;26.37;;;22.63;;
8881;SDS011;4477;48.736;9.176;2022-10-31T07:08:31;37.20;;;27.47;;
8881;SDS011;4477;48.736;9.176;2022-10-31T07:10:59;31.63;;;23.50;;
8881;SDS011;4477;48.736;9.176;2022-10-31T07:13:26;27.93;;;24.30;;
8881;SDS011;4477;48.736;9.176;2022-10-31T07:15:54;39.00;;;26.87;;
8881;SDS011;4477;48.736;9.176;2022-10-31T07:18:25;36.57;;;28.40;;
8881;SDS011;4477;48.736;9.176;2022-10-31T07:20:52;36.77;;;27.20;;
8881;SDS011;4477;48.736;9.176;2022-10-31T07:23:19;36.53;;;28.80;;
8881;SDS011;4477;48.736;9.176;2022-10-31T07:25:46;38.43;;;27.83;;
8881;SDS011;4477;48.736;9.176;2022-10-31T07:28:14;40.97;;;28.03;;
8881;SDS011;4477;48.736;9.176;2022-10-31T07:30:41;35.97;;;27.90;;
8881;SDS011;4477;48.736;9.176;2022-10-31T07:33:07;36.00;;;26.60;;
8881;SDS011;4477;48.736;9.176;2022-10-31T07:35:34;38.47;;;29.67;;
8881;SDS011;4477;48.736;9.176;2022-10-31T07:38:07;37.97;;;27.97;;
8881;SDS011;4477;48.736;9.176;2022-10-31T07:40:35;35.47;;;28.90;;
8881;SDS011;4477;48.736;9.176;2022-10-31T07:43:02;25.93;;;21.53;;
8881;SDS011;4477;48.736;9.176;2022-10-31T07:45:31;29.67;;;22.00;;
8881;SDS011;4477;48.736;9.176;2022-10-31T07:47:58;28.43;;;22.53;;
8881;SDS011;4477;48.736;9.176;2022-10-31T07:50:25;28.10;;;23.77;;
8881;SDS011;4477;48.736;9.176;2022-10-31T07:53:03;33.50;;;24.23;;
8881;SDS011;4477;48.736;9.176;2022-10-31T07:55:32;31.23;;;23.87;;
8881;SDS011;4477;48.736;9.176;2022-10-31T07:57:59;25.23;;;20.97;;
8881;SDS011;4477;48.736;9.176;2022-10-31T08:00:27;24.70;;;19.33;;
8881;SDS011;4477;48.736;9.176;2022-10-31T08:02:59;24.07;;;20.47;;
8881;SDS011;4477;48.736;9.176;2022-10-31T08:05:27;23.67;;;19.93;;
8881;SDS011;4477;48.736;9.176;2022-10-31T08:07:54;26.33;;;21.07;;
8881;SDS011;4477;48.736;9.176;2022-10-31T08:10:22;24.60;;;20.30;;
8881;SDS011;4477;48.736;9.176;2022-10-31T08:12:54;21.67;;;18.43;;
8881;SDS011;4477;48.736;9.176;2022-10-31T08:15:22;19.83;;;17.40;;
8881;SDS011;4477;48.736;9.176;2022-10-31T08:17:49;17.70;;;14.77;;
8881;SDS011;4477;48.736;9.176;2022-10-31T08:20:17;14.40;;;11.53;;
8881;SDS011;4477;48.736;9.176;2022-10-31T08:22:52;10.87;;;9.73;;
8881;SDS011;4477;48.736;9.176;2022-10-31T08:25:20;14.73;;;9.00;;
8881;SDS011;4477;48.736;9.176;2022-10-31T08:27:48;17.27;;;10.10;;
8881;SDS011;4477;48.736;9.176;2022-10-31T08:30:16;14.07;;;9.73;;
8881;SDS011;4477;48.736;9.176;2022-10-31T08:32:43;11.00;;;8.87;;
8881;SDS011;4477;48.736;9.176;2022-10-31T08:35:10;9.90;;;8.83;;
8881;SDS011;4477;48.736;9.176;2022-10-31T08:37:38;10.90;;;8.43;;
8881;SDS011;4477;48.736;9.176;2022-10-31T08:40:05;13.73;;;8.60;;
8881;SDS011;4477;48.736;9.176;2022-10-31T08:42:33;11.37;;;8.10;;
8881;SDS011;4477;48.736;9.176;2022-10-31T08:45:00;12.90;;;8.50;;
8881;SDS011;4477;48.736;9.176;2022-10-31T08:47:27;11.87;;;7.50;;
8881;SDS011;4477;48.736;9.176;2022-10-31T08:49:54;10.40;;;7.07;;
8881;SDS011;4477;48.736;9.176;2022-10-31T08:52:22;7.83;;;6.70;;
8881;SDS011;4477;48.736;9.176;2022-10-31T08:54:51;7.53;;;6.30;;
8881;SDS011;4477;48.736;9.176;2022-10-31T08:57:18;7.77;;;5.97;;
8881;SDS011;4477;48.736;9.176;2022-10-31T08:59:45;9.77;;;6.27;;
8881;SDS011;4477;48.736;9.176;2022-10-31T09:02:12;10.60;;;6.33;;
8881;SDS011;4477;48.736;9.176;2022-10-31T09:04:39;7.57;;;6.20;;
8881;SDS011;4477;48.736;9.176;2022-10-31T09:07:05;11.67;;;6.10;;
8881;SDS011;4477;48.736;9.176;2022-10-31T09:09:32;9.53;;;5.50;;
8881;SDS011;4477;48.736;9.176;2022-10-31T09:12:00;10.43;;;5.83;;
8881;SDS011;4477;48.736;9.176;2022-10-31T09:14:27;7.80;;;5.67;;
8881;SDS011;4477;48.736;9.176;2022-10-31T09:16:54;9.17;;;5.70;;
8881;SDS011;4477;48.736;9.176;2022-10-31T09:19:21;11.63;;;7.63;;
8881;SDS011;4477;48.736;9.176;2022-10-31T09:21:51;8.07;;;7.27;;
8881;SDS011;4477;48.736;9.176;2022-10-31T09:24:18;24.33;;;7.30;;
8881;SDS011;4477;48.736;9.176;2022-10-31T09:26:45;10.13;;;6.97;;
8881;SDS011;4477;48.736;9.176;2022-10-31T09:29:13;11.23;;;6.40;;
8881;SDS011;4477;48.736;9.176;2022-10-31T09:31:40;17.87;;;7.60;;
8881;SDS011;4477;48.736;9.176;2022-10-31T09:34:06;11.43;;;6.40;;
8881;SDS011;4477;48.736;9.176;2022-10-31T09:36:33;13.30;;;6.77;;
8881;SDS011;4477;48.736;9.176;2022-10-31T09:39:00;10.20;;;6.70;;
8881;SDS011;4477;48.736;9.176;2022-10-31T09:41:28;10.87;;;6.87;;
8881;SDS011;4477;48.736;9.176;2022-10-31T09:44:06;10.50;;;6.67;;
8881;SDS011;4477;48.736;9.176;2022-10-31T09:46:44;8.80;;;6.20;;
8881;SDS011;4477;48.736;9.176;2022-10-31T09:49:24;7.60;;;6.07;;
8881;SDS011;4477;48.736;9.176;2022-10-31T09:52:11;9.77;;;6.23;;
8881;SDS011;4477;48.736;9.176;2022-10-31T09:54:46;10.13;;;5.97;;
8881;SDS011;4477;48.736;9.176;2022-10-31T09:57:16;10.47;;;6.03;;
8881;SDS011;4477;48.736;9.176;2022-10-31T09:59:48;8.27;;;6.03;;
8881;SDS011;4477;48.736;9.176;2022-10-31T10:02:18;11.23;;;6.30;;
8881;SDS011;4477;48.736;9.176;2022-10-31T10:04:51;10.20;;;6.13;;
8881;SDS011;4477;48.736;9.176;2022-10-31T10:07:27;9.10;;;6.30;;
8881;SDS011;4477;48.736;9.176;2022-10-31T10:09:56;9.23;;;5.67;;
8881;SDS011;4477;48.736;9.176;2022-10-31T10:12:28;11.93;;;5.80;;
8881;SDS011;4477;48.736;9.176;2022-10-31T10:15:15;8.33;;;5.63;;
8881;SDS011;4477;48.736;9.176;2022-10-31T10:17:53;8.60;;;5.87;;
8881;SDS011;4477;48.736;9.176;2022-10-31T10:20:31;8.37;;;5.30;;
8881;SDS011;4477;48.736;9.176;2022-10-31T10:23:10;7.53;;;5.60;;
8881;SDS011;4477;48.736;9.176;2022-10-31T10:25:49;9.10;;;5.53;;
8881;SDS011;4477;48.736;9.176;2022-10-31T10:28:23;9.60;;;5.13;;
8881;SDS011;4477;48.736;9.176;2022-10-31T10:30:54;16.97;;;7.03;;
8881;SDS011;4477;48.736;9.176;2022-10-31T10:33:29;7.40;;;5.47;;
8881;SDS011;4477;48.736;9.176;2022-10-31T10:35:58;10.97;;;5.27;;
8881;SDS011;4477;48.736;9.176;2022-10-31T10:38:28;10.47;;;5.60;;
8881;SDS011;4477;48.736;9.176;2022-10-31T10:41:01;11.03;;;6.17;;
8881;SDS011;4477;48.736;9.176;2022-10-31T10:43:30;13.23;;;5.30;;
8881;SDS011;4477;48.736;9.176;2022-10-31T10:46:13;8.83;;;5.73;;
8881;SDS011;4477;48.736;9.176;2022-10-31T10:49:06;8.63;;;5.80;;
8881;SDS011;4477;48.736;9.176;2022-10-31T10:51:43;11.43;;;6.20;;
8881;SDS011;4477;48.736;9.176;2022-10-31T10:54:15;8.67;;;5.60;;
8881;SDS011;4477;48.736;9.176;2022-10-31T10:56:56;7.47;;;5.33;;
8881;SDS011;4477;48.736;9.176;2022-10-31T10:59:29;11.47;;;5.90;;
8881;SDS011;4477;48.736;9.176;2022-10-31T11:01:57;12.93;;;6.30;;
8881;SDS011;4477;48.736;9.176;2022-10-31T11:04:28;10.00;;;6.80;;
8881;SDS011;4477;48.736;9.176;2022-10-31T11:07:00;10.77;;;6.60;;
8881;SDS011;4477;48.736;9.176;2022-10-31T11:09:29;11.73;;;6.47;;
8881;SDS011;4477;48.736;9.176;2022-10-31T11:11:56;13.10;;;6.57;;
8881;SDS011;4477;48.736;9.176;2022-10-31T11:14:24;11.67;;;7.27;;
8881;SDS011;4477;48.736;9.176;2022-10-31T11:16:53;8.37;;;6.50;;
8881;SDS011;4477;48.736;9.176;2022-10-31T11:19:34;9.70;;;6.60;;
8881;SDS011;4477;48.736;9.176;2022-10-31T11:22:05;10.83;;;6.07;;
8881;SDS011;4477;48.736;9.176;2022-10-31T11:24:36;10.13;;;6.20;;
8881;SDS011;4477;48.736;9.176;2022-10-31T11:27:10;11.40;;;5.93;;
8881;SDS011;4477;48.736;9.176;2022-10-31T11:29:40;8.80;;;6.18;;
8881;SDS011;4477;48.736;9.176;2022-10-31T11:32:08;11.52;;;5.72;;
8881;SDS011;4477;48.736;9.176;2022-10-31T11:34:46;15.70;;;6.25;;
8881;SDS011;4477;48.736;9.176;2022-10-31T11:37:18;8.05;;;5.55;;
8881;SDS011;4477;48.736;9.176;2022-10-31T11:39:48;11.45;;;6.50;;
8881;SDS011;4477;48.736;9.176;2022-10-31T11:42:19;11.63;;;5.90;;
8881;SDS011;4477;48.736;9.176;2022-10-31T11:44:48;11.60;;;5.80;;
8881;SDS011;4477;48.736;9.176;2022-10-31T11:47:17;9.13;;;5.35;;
8881;SDS011;4477;48.736;9.176;2022-10-31T11:49:50;11.10;;;5.93;;
8881;SDS011;4477;48.736;9.176;2022-10-31T11:52:18;9.65;;;6.57;;
8881;SDS011;4477;48.736;9.176;2022-10-31T11:54:48;10.90;;;6.57;;
8881;SDS011;4477;48.736;9.176;2022-10-31T11:57:22;14.23;;;5.68;;
8881;SDS011;4477;48.736;9.176;2022-10-31T11:59:51;9.88;;;5.47;;
8881;SDS011;4477;48.736;9.176;2022-10-31T12:02:20;12.77;;;6.15;;
8881;SDS011;4477;48.736;9.176;2022-10-31T12:04:49;9.77;;;6.25;;
8881;SDS011;4477;48.736;9.176;2022-10-31T12:07:22;10.77;;;5.43;;
8881;SDS011;4477;48.736;9.176;2022-10-31T12:09:51;8.80;;;5.50;;
8881;SDS011;4477;48.736;9.176;2022-10-31T12:12:32;11.52;;;6.45;;
8881;SDS011;4477;48.736;9.176;2022-10-31T12:15:13;11.53;;;5.60;;
8881;SDS011;4477;48.736;9.176;2022-10-31T12:18:02;9.98;;;5.53;;
8881;SDS011;4477;48.736;9.176;2022-10-31T12:20:59;10.13;;;5.40;;
8881;SDS011;4477;48.736;9.176;2022-10-31T12:23:42;9.38;;;5.13;;
8881;SDS011;4477;48.736;9.176;2022-10-31T12:26:20;13.77;;;5.72;;
8881;SDS011;4477;48.736;9.176;2022-10-31T12:28:56;10.90;;;5.25;;
8881;SDS011;4477;48.736;9.176;2022-10-31T12:31:43;7.15;;;4.93;;
8881;SDS011;4477;48.736;9.176;2022-10-31T12:34:33;9.80;;;5.38;;
8881;SDS011;4477;48.736;9.176;2022-10-31T12:37:36;9.75;;;4.25;;
8881;SDS011;4477;48.736;9.176;2022-10-31T12:40:17;12.23;;;4.83;;
8881;SDS011;4477;48.736;9.176;2022-10-31T12:43:05;10.45;;;5.32;;
8881;SDS011;4477;48.736;9.176;2022-10-31T12:45:45;12.70;;;6.50;;
8881;SDS011;4477;48.736;9.176;2022-10-31T12:48:24;10.43;;;5.87;;
8881;SDS011;4477;48.736;9.176;2022-10-31T12:51:00;12.20;;;6.57;;
8881;SDS011;4477;48.736;9.176;2022-10-31T12:53:38;13.50;;;6.00;;
8881;SDS011;4477;48.736;9.176;2022-10-31T12:56:14;11.30;;;6.00;;
8881;SDS011;4477;48.736;9.176;2022-10-31T12:58:54;8.73;;;6.30;;
8881;SDS011;4477;48.736;9.176;2022-10-31T13:01:26;11.27;;;5.70;;
8881;SDS011;4477;48.736;9.176;2022-10-31T13:03:57;8.00;;;5.63;;
8881;SDS011;4477;48.736;9.176;2022-10-31T13:06:29;10.33;;;6.03;;
8881;SDS011;4477;48.736;9.176;2022-10-31T13:09:00;12.27;;;6.13;;
8881;SDS011;4477;48.736;9.176;2022-10-31T13:11:32;11.47;;;6.13;;
8881;SDS011;4477;48.736;9.176;2022-10-31T13:14:02;8.77;;;5.90;;
8881;SDS011;4477;48.736;9.176;2022-10-31T13:16:34;7.83;;;5.07;;
8881;SDS011;4477;48.736;9.176;2022-10-31T13:19:07;9.03;;;5.70;;
8881;SDS011;4477;48.736;9.176;2022-10-31T13:21:39;8.90;;;6.10;;
8881;SDS011;4477;48.736;9.176;2022-10-31T13:24:13;9.47;;;5.80;;
8881;SDS011;4477;48.736;9.176;2022-10-31T13:26:47;10.50;;;6.10;;
8881;SDS011;4477;48.736;9.176;2022-10-31T13:29:18;10.43;;;5.80;;
8881;SDS011;4477;48.736;9.176;2022-10-31T13:31:49;12.93;;;5.77;;
8881;SDS011;4477;48.736;9.176;2022-10-31T13:34:22;11.93;;;5.30;;
8881;SDS011;4477;48.736;9.176;2022-10-31T13:36:57;10.73;;;5.87;;
8881;SDS011;4477;48.736;9.176;2022-10-31T13:39:38;11.63;;;5.40;;
8881;SDS011;4477;48.736;9.176;2022-10-31T13:42:21;10.20;;;5.27;;
8881;SDS011;4477;48.736;9.176;2022-10-31T13:45:06;8.25;;;4.53;;
8881;SDS011;4477;48.736;9.176;2022-10-31T13:47:37;6.07;;;4.05;;
8881;SDS011;4477;48.736;9.176;2022-10-31T13:50:05;9.80;;;4.13;;
8881;SDS011;4477;48.736;9.176;2022-10-31T13:52:44;12.75;;;4.30;;
8881;SDS011;4477;48.736;9.176;2022-10-31T13:58:04;12.45;;;5.30;;
8881;SDS011;4477;48.736;9.176;2022-10-31T14:00:45;7.63;;;5.15;;
8881;SDS011;4477;48.736;9.176;2022-10-31T14:03:16;12.10;;;5.60;;
8881;SDS011;4477;48.736;9.176;2022-10-31T14:05:51;11.05;;;5.57;;
8881;SDS011;4477;48.736;9.176;2022-10-31T14:08:20;9.88;;;5.30;;
8881;SDS011;4477;48.736;9.176;2022-10-31T14:10:51;17.52;;;9.90;;
8881;SDS011;4477;48.736;9.176;2022-10-31T14:13:20;13.95;;;6.90;;
8881;SDS011;4477;48.736;9.176;2022-10-31T14:15:53;8.63;;;5.30;;
8881;SDS011;4477;48.736;9.176;2022-10-31T14:18:23;7.88;;;5.43;;
8881;SDS011;4477;48.736;9.176;2022-10-31T14:20:54;29.35;;;16.90;;
8881;SDS011;4477;48.736;9.176;2022-10-31T14:26:17;9.68;;;5.47;;
8881;SDS011;4477;48.736;9.176;2022-10-31T14:31:52;11.15;;;5.57;;
8881;SDS011;4477;48.736;9.176;2022-10-31T14:34:23;10.68;;;5.20;;
8881;SDS011;4477;48.736;9.176;2022-10-31T14:36:56;8.50;;;4.80;;
8881;SDS011;4477;48.736;9.176;2022-10-31T14:39:31;12.13;;;4.90;;
8881;SDS011;4477;48.736;9.176;2022-10-31T14:42:14;9.05;;;5.43;;
8881;SDS011;4477;48.736;9.176;2022-10-31T14:48:05;11.63;;;5.03;;
8881;SDS011;4477;48.736;9.176;2022-10-31T14:50:44;10.67;;;5.50;;
8881;SDS011;4477;48.736;9.176;2022-10-31T14:53:15;9.83;;;6.03;;
8881;SDS011;4477;48.736;9.176;2022-10-31T14:55:47;12.90;;;6.23;;
8881;SDS011;4477;48.736;9.176;2022-10-31T14:58:20;38.53;;;16.53;;
8881;SDS011;4477;48.736;9.176;2022-10-31T15:00:50;28.83;;;13.30;;
8881;SDS011;4477;48.736;9.176;2022-10-31T15:03:24;23.77;;;14.00;;
8881;SDS011;4477;48.736;9.176;2022-10-31T15:05:58;25.90;;;12.07;;
8881;SDS011;4477;48.736;9.176;2022-10-31T15:08:31;26.87;;;11.97;;
8881;SDS011;4477;48.736;9.176;2022-10-31T15:11:06;18.67;;;9.40;;
8881;SDS011;4477;48.736;9.176;2022-10-31T15:13:42;28.70;;;12.37;;
8881;SDS011;4477;48.736;9.176;2022-10-31T15:16:10;29.30;;;12.43;;
8881;SDS011;4477;48.736;9.176;2022-10-31T15:18:39;24.53;;;12.17;;
8881;SDS011;4477;48.736;9.176;2022-10-31T15:21:11;18.33;;;9.33;;
8881;SDS011;4477;48.736;9.176;2022-10-31T15:23:41;20.43;;;8.70;;
8881;SDS011;4477;48.736;9.176;2022-10-31T15:26:12;12.83;;;7.27;;
8881;SDS011;4477;48.736;9.176;2022-10-31T15:28:44;16.40;;;7.37;;
8881;SDS011;4477;48.736;9.176;2022-10-31T15:31:13;17.90;;;8.73;;
8881;SDS011;4477;48.736;9.176;2022-10-31T15:33:42;12.13;;;7.37;;